Time;durP1;ratioP1;P1;durP2;ratioP2;P2;SDS_P1;SDS_P2;PMS_P1;PMS_P2;Temp;Humidity;BMP_temperature;BMP_pressure;BME280_temperature;BME280_humidity;BME280_pressure;Samples;Min_cycle;Max_cycle;Signal;HPM_P1;HPM_P2
2022/03/25 02:46:40;;;;;;;15.00;7.00;;;;;;;0.05;82.27;99078.16;104680;1277;71638;-26
2022/03/25 02:49:11;;;;;;;9.00;5.30;;;;;;;-0.02;82.60;99080.64;104719;1274;61175;-26
2022/03/25 02:51:41;;;;;;;15.90;7.30;;;;;;;0.24;81.21;99083.23;104636;1274;61121;-26
2022/03/25 02:54:11;;;;;;;17.20;7.70;;;;;;;0.19;81.30;99086.48;104631;1274;74175;-26
2022/03/25 02:56:41;;;;;;;14.30;6.80;;;;;;;0.17;81.66;99087.45;104871;1274;74972;-26
2022/03/25 02:59:11;;;;;;;15.50;7.50;;;;;;;0.04;82.01;99092.37;104652;1274;72971;-27
2022/03/25 03:01:41;;;;;;;9.30;6.00;;;;;;;0.04;82.64;99092.71;104573;1274;61125;-27
2022/03/25 03:04:11;;;;;;;16.00;7.50;;;;;;;0.19;81.75;99095.23;104647;1274;61198;-27
2022/03/25 03:06:43;;;;;;;13.50;6.60;;;;;;;0.42;81.07;99103.23;104657;1274;74166;-27
2022/03/25 03:09:13;;;;;;;20.60;8.90;;;;;;;0.34;81.53;99100.45;104652;1274;73259;-27
2022/03/25 03:12:03;;;;;;;7.90;5.40;;;;;;;0.33;81.61;99100.67;104583;1274;72791;-29
2022/03/25 03:14:33;;;;;;;17.20;7.70;;;;;;;0.11;82.32;99099.80;104595;1275;61179;-27
2022/03/25 03:17:20;;;;;;;11.70;6.70;;;;;;;0.29;82.01;99110.53;104646;1274;61115;-29
2022/03/25 03:19:52;;;;;;;10.50;7.50;;;;;;;0.71;80.16;99112.86;104671;1274;73958;-27
2022/03/25 03:22:41;;;;;;;21.80;8.50;;;;;;;0.46;80.64;99119.30;104596;1274;73063;-27
2022/03/25 03:25:11;;;;;;;14.60;8.20;;;;;;;0.26;81.62;99117.48;104627;1274;71579;-29
2022/03/25 03:27:42;;;;;;;15.20;10.10;;;;;;;-0.02;82.63;99116.80;104893;1274;61131;-29
2022/03/25 03:30:12;;;;;;;19.20;10.40;;;;;;;0.07;82.41;99115.31;104610;1274;61064;-29
2022/03/25 03:32:42;;;;;;;29.10;14.50;;;;;;;0.33;81.13;99120.49;104589;1274;75597;-28
2022/03/25 03:35:14;;;;;;;15.60;6.60;;;;;;;0.37;80.91;99121.86;104596;1274;73243;-30
2022/03/25 03:37:46;;;;;;;24.90;14.30;;;;;;;0.12;81.51;99118.52;104582;1274;72788;-28
2022/03/25 03:40:16;;;;;;;18.80;12.00;;;;;;;-0.02;82.04;99121.42;104611;1274;61041;-29
2022/03/25 03:42:47;;;;;;;19.70;9.50;;;;;;;-0.19;82.70;99129.70;104612;1274;61140;-28
2022/03/25 03:45:17;;;;;;;7.50;4.50;;;;;;;0.11;81.72;99137.33;104782;1274;74051;-29
2022/03/25 03:47:47;;;;;;;7.90;5.40;;;;;;;0.14;81.28;99136.55;104754;1274;71960;-29
2022/03/25 03:50:17;;;;;;;7.10;4.90;;;;;;;0.25;80.96;99145.55;104883;1274;73094;-28
2022/03/25 03:52:48;;;;;;;9.80;6.30;;;;;;;0.07;81.45;99148.73;104767;1274;61031;-29
2022/03/25 03:55:18;;;;;;;8.40;6.00;;;;;;;-0.09;82.35;99149.32;104604;1274;61097;-30
2022/03/25 03:57:48;;;;;;;11.60;6.10;;;;;;;0.30;81.35;99152.50;104641;1274;74283;-31
2022/03/25 04:00:20;;;;;;;6.60;4.50;;;;;;;0.34;80.47;99153.93;104674;1274;72240;-29
2022/03/25 04:02:50;;;;;;;10.70;6.70;;;;;;;0.23;80.70;99155.52;104644;1274;70561;-29
2022/03/25 04:05:20;;;;;;;7.40;4.70;;;;;;;0.19;80.48;99166.61;104711;1274;61230;-29
2022/03/25 04:07:49;;;;;;;7.50;5.40;;;;;;;-0.24;82.12;99168.80;104925;1274;61044;-29
2022/03/25 04:10:20;;;;;;;8.40;5.60;;;;;;;-0.18;82.42;99172.19;104922;1274;72874;-30
2022/03/25 04:12:50;;;;;;;9.00;5.50;;;;;;;0.19;80.95;99169.98;104539;1274;72226;-29
2022/03/25 04:15:20;;;;;;;11.30;6.30;;;;;;;0.21;80.40;99171.48;104784;1274;72899;-29
2022/03/25 04:17:50;;;;;;;9.30;6.50;;;;;;;0.09;80.90;99178.58;104887;1274;61025;-29
2022/03/25 04:20:27;;;;;;;9.90;6.20;;;;;;;-0.12;81.49;99186.15;104814;1274;61111;-29
2022/03/25 04:22:58;;;;;;;9.30;5.60;;;;;;;-0.24;82.26;99190.30;104654;1274;74142;-29
2022/03/25 04:25:28;;;;;;;8.90;5.50;;;;;;;0.11;81.55;99193.35;104654;1274;73476;-30
2022/03/25 04:28:18;;;;;;;9.60;6.40;;;;;;;0.40;80.09;99199.30;104609;1274;72979;-29
2022/03/25 04:30:49;;;;;;;11.00;6.80;;;;;;;0.46;79.62;99200.61;104590;1274;61118;-29
2022/03/25 04:33:20;;;;;;;6.40;5.00;;;;;;;0.07;80.83;99202.88;104663;1274;354733;-29
2022/03/25 04:35:50;;;;;;;8.50;5.10;;;;;;;-0.11;81.92;99207.09;104693;1274;74215;-31
2022/03/25 04:38:20;;;;;;;8.20;5.40;;;;;;;-0.30;82.58;99208.92;104642;1274;74354;-31
2022/03/25 04:40:50;;;;;;;7.20;4.60;;;;;;;-0.03;81.73;99219.29;104639;1273;72836;-30
2022/03/25 04:43:21;;;;;;;8.60;5.30;;;;;;;0.18;81.03;99219.55;104577;1274;61180;-29
2022/03/25 04:45:51;;;;;;;8.50;6.00;;;;;;;0.06;81.17;99225.81;104687;1274;61162;-29
2022/03/25 04:48:22;;;;;;;8.20;5.90;;;;;;;-0.07;81.66;99229.16;104643;1274;72756;-29
2022/03/25 04:50:52;;;;;;;12.70;5.90;;;;;;;-0.18;82.05;99227.98;104697;1275;72396;-29
2022/03/25 04:53:22;;;;;;;9.60;6.40;;;;;;;-0.24;82.55;99228.34;104655;1274;72934;-29
2022/03/25 04:55:53;;;;;;;11.80;7.60;;;;;;;0.09;81.39;99234.40;104691;1274;61012;-29
2022/03/25 04:58:23;;;;;;;14.40;8.60;;;;;;;0.22;80.63;99231.55;104403;1275;61193;-28
2022/03/25 05:00:53;;;;;;;12.00;7.10;;;;;;;-0.09;81.60;99227.69;104647;1274;74091;-30
2022/03/25 05:03:23;;;;;;;8.10;5.70;;;;;;;-0.22;82.41;99228.48;104718;1274;74599;-30
2022/03/25 05:05:53;;;;;;;8.60;6.30;;;;;;;-0.30;82.91;99230.61;104783;1274;72877;-30
2022/03/25 05:08:27;;;;;;;;;;;;;;;-0.03;81.98;99235.34;104630;1274;61151;-31
2022/03/25 05:10:57;;;;;;;8.20;4.90;;;;;;;0.21;81.56;99246.09;104791;1274;61906;-29
2022/03/25 05:13:29;;;;;;;12.40;6.90;;;;;;;0.11;81.59;99250.90;104658;1274;74149;-31
2022/03/25 05:15:59;;;;;;;8.60;5.80;;;;;;;-0.01;82.25;99255.58;104646;1274;74632;-31
2022/03/25 05:18:29;;;;;;;9.10;6.80;;;;;;;0.04;82.45;99261.20;104595;1274;72641;-29
2022/03/25 05:21:01;;;;;;;9.50;6.40;;;;;;;-0.03;82.51;99261.10;104731;1274;61163;-29
2022/03/25 05:23:31;;;;;;;9.00;5.40;;;;;;;0.16;81.24;99276.85;104627;1274;61137;-29
2022/03/25 05:26:00;;;;;;;12.40;8.10;;;;;;;0.16;81.31;99279.05;104749;1274;72818;-29
2022/03/25 05:28:34;;;;;;;12.90;8.40;;;;;;;-0.01;82.04;99277.60;104745;1274;74383;-29
2022/03/25 05:31:04;;;;;;;11.20;8.10;;;;;;;-0.07;82.11;99285.48;104716;1274;72216;-29
2022/03/25 05:33:35;;;;;;;21.00;14.40;;;;;;;-0.09;82.82;99287.91;104804;1274;61143;-29
2022/03/25 05:36:06;;;;;;;14.70;9.10;;;;;;;0.26;81.46;99294.44;104875;1274;61137;-29
2022/03/25 05:38:36;;;;;;;14.50;7.60;;;;;;;0.22;81.39;99300.20;104755;1274;74364;-29
2022/03/25 05:41:07;;;;;;;15.00;9.20;;;;;;;0.29;81.25;99307.96;104631;1275;74890;-28
2022/03/25 05:43:37;;;;;;;12.40;6.90;;;;;;;0.00;82.28;99315.62;104733;1274;71767;-28
2022/03/25 05:46:08;;;;;;;11.40;7.30;;;;;;;-0.04;82.47;99325.12;104759;1274;61151;-29
2022/03/25 05:48:40;;;;;;;21.10;14.00;;;;;;;0.19;82.30;99327.63;104662;1274;61372;-28
2022/03/25 05:51:10;;;;;;;16.10;9.40;;;;;;;0.27;81.48;99331.28;104602;1274;75510;-30
2022/03/25 05:53:41;;;;;;;19.20;12.00;;;;;;;0.31;81.55;99337.63;104613;1274;73423;-28
2022/03/25 05:56:12;;;;;;;24.10;12.00;;;;;;;0.18;81.74;99341.99;105058;1274;73368;-29
2022/03/25 05:58:43;;;;;;;24.50;14.00;;;;;;;-0.23;83.45;99340.92;104621;1277;61088;-29
2022/03/25 06:01:14;;;;;;;15.10;9.80;;;;;;;-0.00;83.00;99344.83;104743;1274;61146;-30
2022/03/25 06:03:45;;;;;;;18.60;11.70;;;;;;;0.02;82.30;99342.85;104654;1274;74123;-29
2022/03/25 06:06:15;;;;;;;14.60;9.60;;;;;;;0.13;82.41;99350.52;104621;1274;74945;-28
2022/03/25 06:08:53;;;;;;;9.90;6.70;;;;;;;0.14;82.40;99353.75;104575;1274;72990;-30
2022/03/25 06:11:23;;;;;;;15.70;9.60;;;;;;;0.20;82.05;99360.69;104656;1274;61121;-29
2022/03/25 06:13:53;;;;;;;14.40;9.30;;;;;;;0.10;83.16;99365.98;104789;1274;61333;-29
2022/03/25 06:16:24;;;;;;;12.50;6.30;;;;;;;0.29;82.01;99368.42;104659;1274;72969;-29
2022/03/25 06:18:57;;;;;;;26.30;16.50;;;;;;;0.54;81.25;99373.53;104785;1274;74610;-29
2022/03/25 06:21:26;;;;;;;16.60;8.50;;;;;;;0.85;80.22;99381.71;104734;1274;72151;-30
2022/03/25 06:24:08;;;;;;;12.10;7.90;;;;;;;0.64;80.84;99386.55;104550;1277;61144;-28
2022/03/25 06:26:38;;;;;;;15.50;9.50;;;;;;;0.58;81.33;99389.50;104728;1274;60999;-29
2022/03/25 06:29:09;;;;;;;8.90;6.70;;;;;;;0.54;81.83;99389.27;104760;1274;74273;-29
2022/03/25 06:31:39;;;;;;;12.10;8.30;;;;;;;0.92;80.65;99394.93;104728;1274;75187;-29
2022/03/25 06:34:09;;;;;;;11.20;7.80;;;;;;;0.99;79.62;99395.71;104845;1274;71376;-29
2022/03/25 06:36:39;;;;;;;18.20;10.60;;;;;;;0.83;80.79;99394.94;105059;1274;61790;-29
2022/03/25 06:39:09;;;;;;;17.40;11.80;;;;;;;0.65;81.44;99401.39;104873;1274;61258;-29
2022/03/25 06:41:39;;;;;;;15.70;9.70;;;;;;;0.64;81.74;99400.73;104805;1274;74843;-29
2022/03/25 06:44:11;;;;;;;13.80;8.00;;;;;;;0.73;81.91;99409.30;104794;1274;74430;-30
2022/03/25 06:46:41;;;;;;;19.30;10.60;;;;;;;0.88;80.90;99415.11;104733;1274;74097;-31
2022/03/25 06:49:11;;;;;;;11.90;7.40;;;;;;;0.93;80.37;99419.36;104724;1274;61134;-29
2022/03/25 06:51:41;;;;;;;26.20;14.60;;;;;;;0.91;80.45;99423.89;104537;1274;61150;-30
2022/03/25 06:54:12;;;;;;;15.10;10.30;;;;;;;0.75;81.19;99427.67;104661;1274;74082;-30
2022/03/25 06:56:42;;;;;;;16.10;10.10;;;;;;;0.68;81.70;99431.52;104534;1275;73285;-32
2022/03/25 06:59:12;;;;;;;16.60;10.10;;;;;;;0.65;82.04;99431.27;104655;1274;72910;-32
2022/03/25 07:01:44;;;;;;;14.40;9.00;;;;;;;0.92;81.00;99434.77;104414;1275;61132;-29
2022/03/25 07:04:14;;;;;;;31.80;20.20;;;;;;;1.15;80.38;99433.29;104715;1277;60967;-29
2022/03/25 07:07:01;;;;;;;27.60;17.80;;;;;;;1.44;79.90;99438.20;104781;1274;74201;-29
2022/03/25 07:09:32;;;;;;;13.40;9.00;;;;;;;1.11;80.35;99439.60;104640;1274;75685;-29
2022/03/25 07:12:02;;;;;;;22.70;12.00;;;;;;;1.00;81.38;99443.38;104599;1274;73076;-29
2022/03/25 07:14:33;;;;;;;18.90;12.50;;;;;;;1.48;80.10;99447.29;104607;1275;60963;-29
2022/03/25 07:17:22;;;;;;;30.10;16.00;;;;;;;1.64;78.28;99455.77;104312;1277;61135;-29
2022/03/25 07:19:52;;;;;;;27.50;14.60;;;;;;;1.76;79.00;99459.24;104875;1274;73832;-29
2022/03/25 07:22:22;;;;;;;23.60;11.60;;;;;;;2.06;77.35;99460.33;104862;1274;73607;-29
2022/03/25 07:24:53;;;;;;;24.50;14.60;;;;;;;1.86;77.59;99463.16;105060;1274;73104;-29
2022/03/25 07:27:23;;;;;;;19.90;11.20;;;;;;;1.82;78.01;99466.40;104746;1274;61151;-29
2022/03/25 07:29:53;;;;;;;12.10;8.10;;;;;;;1.97;79.50;99465.13;105075;1274;61124;-30
2022/03/25 07:32:23;;;;;;;20.90;10.40;;;;;;;2.57;76.99;99466.83;104961;1273;74091;-30
2022/03/25 07:34:53;;;;;;;36.70;24.70;;;;;;;2.84;75.86;99475.33;104615;1274;74703;-30
2022/03/25 07:37:23;;;;;;;33.10;19.80;;;;;;;3.10;73.01;99478.67;104627;1274;74399;-30
2022/03/25 07:39:54;;;;;;;30.80;18.00;;;;;;;2.89;74.05;99484.01;104714;1274;61045;-30
2022/03/25 07:42:24;;;;;;;14.90;8.70;;;;;;;3.40;73.19;99487.49;104768;1273;61150;-30
2022/03/25 07:44:54;;;;;;;18.80;11.00;;;;;;;3.10;73.01;99487.25;104734;1274;75141;-30
2022/03/25 07:47:24;;;;;;;12.40;5.60;;;;;;;3.41;71.95;99494.33;104785;1274;74551;-30
2022/03/25 07:49:54;;;;;;;14.10;8.60;;;;;;;3.49;70.99;99491.20;104704;1274;71528;-29
2022/03/25 07:52:24;;;;;;;14.30;8.90;;;;;;;3.42;71.02;99496.98;104733;1274;61083;-29
2022/03/25 07:55:00;;;;;;;17.50;11.40;;;;;;;3.38;71.67;99502.98;104748;1274;61057;-29
2022/03/25 07:57:30;;;;;;;13.30;7.60;;;;;;;3.08;71.54;99503.27;104664;1275;73818;-28
2022/03/25 08:00:03;;;;;;;13.70;8.00;;;;;;;3.28;70.65;99514.10;104676;1274;73250;-28
2022/03/25 08:02:33;;;;;;;9.80;6.90;;;;;;;3.59;69.61;99516.49;104631;1275;71631;-28
2022/03/25 08:05:06;;;;;;;11.10;6.70;;;;;;;4.56;69.33;99519.70;104784;1274;61047;-28
2022/03/25 08:07:43;;;;;;;15.00;8.80;;;;;;;5.25;64.63;99518.02;104394;1277;61185;-28
2022/03/25 08:10:13;;;;;;;16.60;8.90;;;;;;;5.72;65.56;99527.77;104439;1274;72899;-28
2022/03/25 08:13:03;;;;;;;13.40;7.90;;;;;;;6.72;64.85;99533.17;104332;1276;74642;-28
2022/03/25 08:15:34;;;;;;;29.50;21.90;;;;;;;7.15;62.28;99537.04;104728;1274;73150;-28
2022/03/25 08:18:06;;;;;;;66.00;52.70;;;;;;;6.44;62.37;99540.28;104714;1274;61143;-28
2022/03/25 08:20:37;;;;;;;17.80;12.80;;;;;;;6.60;60.97;99541.27;104374;1277;61151;-28
2022/03/25 08:29:03;;;;;;;11.40;7.80;;;;;;;5.21;62.45;99547.44;104631;1274;71684;-28
2022/03/25 08:31:48;;;;;;;13.90;9.30;;;;;;;5.33;61.46;99547.34;104862;1274;61016;-28
2022/03/25 08:34:18;;;;;;;19.40;12.50;;;;;;;4.78;62.15;99546.52;105028;1274;61118;-28
2022/03/25 08:36:49;;;;;;;12.60;7.70;;;;;;;4.37;62.97;99549.89;104723;1274;74059;-28
2022/03/25 08:39:19;;;;;;;13.90;7.60;;;;;;;5.12;61.23;99549.14;104614;1275;73161;-28
2022/03/25 08:41:49;;;;;;;10.50;6.70;;;;;;;5.82;60.05;99551.36;104740;1274;72885;-28
2022/03/25 08:44:19;;;;;;;12.60;7.00;;;;;;;6.48;58.64;99554.35;104604;1274;61137;-28
2022/03/25 08:46:50;;;;;;;12.10;8.20;;;;;;;7.02;56.32;99553.02;104628;1274;61105;-28
2022/03/25 08:49:20;;;;;;;12.10;7.80;;;;;;;7.17;55.01;99556.97;104729;1274;72670;-28
2022/03/25 08:51:50;;;;;;;13.30;7.50;;;;;;;7.46;54.67;99556.31;104725;1274;73364;-28
2022/03/25 08:54:25;;;;;;;12.20;7.80;;;;;;;7.51;55.07;99555.30;104751;1274;72776;-28
2022/03/25 08:56:55;;;;;;;9.20;5.70;;;;;;;7.49;54.43;99555.45;104923;1274;61198;-28
2022/03/25 08:59:26;;;;;;;9.90;6.30;;;;;;;7.48;54.21;99558.41;104758;1274;61237;-28
2022/03/25 09:01:56;;;;;;;15.70;7.90;;;;;;;7.17;53.74;99555.74;105107;1274;74121;-28
2022/03/25 09:04:26;;;;;;;11.80;8.10;;;;;;;6.92;54.66;99559.63;105110;1274;76115;-28
2022/03/25 09:06:56;;;;;;;12.00;8.10;;;;;;;6.67;54.19;99561.08;105062;1274;71656;-28
2022/03/25 09:09:42;;;;;;;10.40;6.30;;;;;;;6.79;55.62;99559.52;104609;1274;61127;-28
2022/03/25 09:12:12;;;;;;;13.20;8.70;;;;;;;7.22;54.41;99563.58;104757;1274;61150;-28
2022/03/25 09:15:00;;;;;;;12.60;9.10;;;;;;;6.94;54.82;99561.58;104768;1275;74174;-28
2022/03/25 09:17:31;;;;;;;11.00;6.20;;;;;;;6.86;55.38;99562.77;104673;1274;73454;-28
2022/03/25 09:20:03;;;;;;;12.40;7.50;;;;;;;7.05;55.96;99567.66;104729;1275;72880;-28
2022/03/25 09:22:35;;;;;;;11.50;7.60;;;;;;;7.67;54.26;99568.00;104752;1275;61230;-28
2022/03/25 09:25:08;;;;;;;8.80;6.30;;;;;;;7.62;54.56;99567.77;104667;1274;61006;-28
2022/03/25 09:27:41;;;;;;;11.40;8.80;;;;;;;7.29;53.40;99570.95;104514;1274;74132;-29
2022/03/25 09:30:13;;;;;;;12.90;9.50;;;;;;;7.35;55.29;99572.33;104610;1274;74622;-28
2022/03/25 09:33:04;;;;;;;11.10;7.70;;;;;;;7.37;53.57;99577.02;104660;1274;72992;-28
2022/03/25 09:35:37;;;;;;;12.60;9.00;;;;;;;7.98;51.12;99579.04;104589;1275;61182;-28
2022/03/25 09:38:08;;;;;;;11.70;8.70;;;;;;;8.08;51.20;99579.52;104631;1274;61159;-28
2022/03/25 09:40:40;;;;;;;13.60;8.40;;;;;;;7.19;51.92;99581.38;104625;1274;72826;-27
2022/03/25 09:43:11;;;;;;;12.00;8.90;;;;;;;7.18;53.09;99584.70;104431;1274;74740;-27
2022/03/25 09:45:43;;;;;;;15.70;9.10;;;;;;;7.30;51.81;99591.41;104591;1274;72857;-27
2022/03/25 09:48:13;;;;;;;10.50;6.30;;;;;;;8.16;49.59;99592.13;104736;1274;61067;-27
2022/03/25 09:50:43;;;;;;;11.40;6.70;;;;;;;9.20;48.13;99589.31;105095;1274;61156;-27
2022/03/25 09:53:33;;;;;;;16.90;9.40;;;;;;;9.89;46.91;99586.50;105101;1274;73886;-27
2022/03/25 09:56:04;;;;;;;13.80;10.00;;;;;;;9.03;50.29;99584.14;105118;1274;74383;-27
2022/03/25 09:58:34;;;;;;;12.70;8.80;;;;;;;8.29;51.91;99587.36;104769;1274;70894;-27
2022/03/25 10:01:04;;;;;;;12.20;8.00;;;;;;;8.46;51.89;99585.55;104790;1274;61025;-27
2022/03/25 10:03:36;;;;;;;13.90;8.80;;;;;;;8.96;49.36;99583.61;104711;1274;61148;-27
2022/03/25 10:06:12;;;;;;;14.00;8.80;;;;;;;8.64;49.83;99587.21;104620;1274;74136;-28
2022/03/25 10:08:45;;;;;;;13.00;8.80;;;;;;;9.69;47.92;99590.67;104629;1275;74324;-27
2022/03/25 10:11:26;;;;;;;11.70;7.90;;;;;;;9.48;48.38;99585.64;104511;1274;72904;-27
2022/03/25 10:14:19;;;;;;;19.00;6.70;;;;;;;9.67;47.80;99590.30;104681;1274;61054;-28
2022/03/25 10:16:53;;;;;;;12.30;8.70;;;;;;;9.96;47.49;99596.09;104756;1274;62088;-30
2022/03/25 10:19:49;;;;;;;11.60;8.10;;;;;;;8.87;48.41;99595.04;104632;1274;72830;-30
2022/03/25 10:22:19;;;;;;;11.80;8.70;;;;;;;8.44;49.95;99603.02;104600;1274;73409;-30
2022/03/25 10:25:09;;;;;;;12.90;8.20;;;;;;;7.72;51.80;99605.39;105046;1274;70838;-30
2022/03/25 10:27:40;;;;;;;11.50;6.80;;;;;;;7.59;52.52;99604.78;104720;1274;61115;-29
2022/03/25 10:30:10;;;;;;;15.10;9.10;;;;;;;7.59;52.21;99608.04;104646;1274;61149;-30
2022/03/25 10:32:40;;;;;;;13.30;8.60;;;;;;;7.94;51.93;99608.17;104814;1274;74191;-29
2022/03/25 10:35:11;;;;;;;12.90;8.20;;;;;;;8.64;49.37;99604.90;105001;1274;74442;-29
2022/03/25 10:37:58;;;;;;;10.20;7.00;;;;;;;8.97;48.12;99609.16;104401;1274;72952;-26
2022/03/25 10:40:27;;;;;;;10.30;7.30;;;;;;;9.86;45.91;99605.63;104726;1275;61220;-27
2022/03/25 10:43:05;;;;;;;13.40;7.10;;;;;;;10.27;45.60;99606.77;104731;1274;61114;-27
2022/03/25 10:45:40;;;;;;;6.70;3.80;;;;;;;10.46;44.20;99602.88;104518;1274;72341;-28
2022/03/25 10:48:15;;;;;;;12.30;7.50;;;;;;;10.69;42.87;99604.52;104615;1274;74825;-28
2022/03/25 10:51:05;;;;;;;8.50;5.80;;;;;;;10.81;42.32;99600.68;104603;1274;72973;-28
2022/03/25 10:53:36;;;;;;;8.30;6.40;;;;;;;11.48;39.75;99605.80;104600;1277;61161;-28
2022/03/25 10:56:10;;;;;;;12.20;7.30;;;;;;;10.20;43.25;99599.45;104635;1274;61131;-29
2022/03/25 10:58:50;;;;;;;;;;;;;;;9.72;45.01;99594.80;104662;1274;74130;-27
2022/03/25 11:01:20;;;;;;;13.80;7.20;;;;;;;9.34;46.23;99596.02;104764;1274;74363;-26
2022/03/25 11:03:51;;;;;;;32.70;9.20;;;;;;;8.62;48.56;99595.28;104701;1274;70208;-27
2022/03/25 11:06:21;;;;;;;9.40;6.10;;;;;;;8.75;48.79;99593.13;104660;1274;61037;-28
2022/03/25 11:09:13;;;;;;;12.30;7.70;;;;;;;9.16;47.28;99592.14;104565;1274;61019;-28
2022/03/25 11:11:45;;;;;;;10.70;7.00;;;;;;;8.99;47.79;99588.92;104569;1274;73884;-29
2022/03/25 11:14:35;;;;;;;14.00;8.40;;;;;;;8.65;48.40;99589.56;104383;1274;73279;-30
2022/03/25 11:17:07;;;;;;;7.80;4.80;;;;;;;8.92;47.95;99589.25;104622;1276;71667;-28
2022/03/25 11:19:59;;;;;;;9.70;6.60;;;;;;;9.11;47.86;99588.66;104714;1274;61126;-29
2022/03/25 11:22:29;;;;;;;17.30;9.40;;;;;;;9.76;45.86;99585.36;104383;1275;61118;-28
2022/03/25 11:25:00;;;;;;;12.50;8.00;;;;;;;9.65;45.70;99583.33;104844;1274;75428;-27
2022/03/25 11:27:32;;;;;;;10.90;7.00;;;;;;;9.61;45.64;99585.15;104766;1274;74517;-28
2022/03/25 11:30:04;;;;;;;10.20;6.80;;;;;;;10.00;43.95;99586.45;104613;1274;71684;-28
2022/03/25 11:32:46;;;;;;;9.20;5.70;;;;;;;10.29;42.77;99588.90;104376;1274;61049;-28
2022/03/25 11:35:20;;;;;;;12.20;7.70;;;;;;;9.57;44.25;99586.78;104429;1274;62433;-28
2022/03/25 11:38:14;;;;;;;11.10;7.10;;;;;;;10.32;43.31;99584.88;104721;1274;74023;-27
2022/03/25 11:40:48;;;;;;;12.00;8.20;;;;;;;10.18;43.29;99581.69;104769;1274;75414;-27
2022/03/25 11:43:19;;;;;;;10.90;6.20;;;;;;;9.81;43.48;99586.40;104675;1274;72038;-26
2022/03/25 11:46:00;;;;;;;9.60;6.90;;;;;;;10.04;43.40;99588.98;104584;1274;61101;-26
2022/03/25 11:48:31;;;;;;;8.70;6.10;;;;;;;9.53;43.34;99585.83;104765;1274;61692;-26
2022/03/25 11:51:01;;;;;;;8.70;6.00;;;;;;;9.81;43.60;99582.73;104758;1274;74056;-26
2022/03/25 11:53:31;;;;;;;10.50;7.10;;;;;;;10.36;42.90;99584.78;104868;1274;75871;-28
2022/03/25 11:56:12;;;;;;;10.40;5.90;;;;;;;10.84;43.01;99581.52;104757;1274;72645;-26
2022/03/25 11:58:55;;;;;;;10.10;5.70;;;;;;;10.84;41.91;99580.79;104721;1275;61123;-28
2022/03/25 12:01:26;;;;;;;9.00;6.60;;;;;;;11.33;42.07;99581.90;104735;1275;61152;-26
2022/03/25 12:03:57;;;;;;;7.10;5.40;;;;;;;11.62;40.48;99578.14;104632;1277;75944;-27
2022/03/25 12:06:50;;;;;;;9.90;6.00;;;;;;;11.74;40.28;99574.10;104377;1277;75283;-26
2022/03/25 12:09:20;;;;;;;10.20;6.10;;;;;;;10.93;41.71;99571.27;104589;1274;70491;-26
2022/03/25 12:11:55;;;;;;;9.50;5.60;;;;;;;11.08;41.54;99570.20;104626;1274;61033;-28
2022/03/25 12:14:33;;;;;;;8.20;5.90;;;;;;;11.31;41.57;99572.45;104654;1274;61129;-26
2022/03/25 12:17:07;;;;;;;9.70;5.10;;;;;;;11.60;41.20;99569.05;104724;1274;72505;-26
2022/03/25 12:19:42;;;;;;;13.60;9.50;;;;;;;11.38;40.93;99567.40;104653;1274;74529;-26
2022/03/25 12:22:22;;;;;;;9.10;7.00;;;;;;;10.04;42.16;99568.98;104631;1274;72770;-26
2022/03/25 12:24:53;;;;;;;8.90;6.40;;;;;;;10.21;42.14;99572.10;104571;1274;61083;-27
2022/03/25 12:27:24;;;;;;;13.10;8.00;;;;;;;10.66;41.69;99573.60;104450;1277;61087;-27
2022/03/25 12:29:55;;;;;;;8.40;5.80;;;;;;;10.02;41.67;99571.37;104479;1274;73852;-28
2022/03/25 12:32:35;;;;;;;11.60;7.90;;;;;;;10.17;41.83;99573.28;105112;1274;74555;-28
2022/03/25 12:35:13;;;;;;;13.20;7.70;;;;;;;10.45;40.56;99570.25;104901;1270;73026;-27
2022/03/25 12:37:51;;;;;;;6.70;5.00;;;;;;;10.12;41.48;99567.89;104956;1273;61130;-26
2022/03/25 12:40:23;;;;;;;7.90;5.40;;;;;;;10.12;41.83;99565.34;105050;1271;61122;-27
2022/03/25 12:43:11;;;;;;;9.80;5.70;;;;;;;10.31;41.14;99567.42;104765;1271;72867;-27
2022/03/25 12:45:48;;;;;;;12.50;6.90;;;;;;;10.39;41.14;99565.19;104888;1271;75026;-27
2022/03/25 12:48:40;;;;;;;11.80;6.40;;;;;;;10.14;41.21;99566.04;105108;1271;72726;-26
2022/03/25 12:51:11;;;;;;;9.60;6.10;;;;;;;10.19;41.38;99562.59;104939;1271;61131;-26
2022/03/25 12:53:44;;;;;;;8.70;5.90;;;;;;;10.22;41.96;99564.05;104902;1271;61137;-26
2022/03/25 12:56:15;;;;;;;5.90;4.70;;;;;;;10.57;40.98;99559.53;104937;1271;74057;-26
2022/03/25 12:58:52;;;;;;;7.70;5.60;;;;;;;10.78;40.32;99551.70;104788;1271;73037;-26
2022/03/25 13:01:23;;;;;;;10.70;6.80;;;;;;;10.87;40.60;99551.05;104683;1274;71874;-28
2022/03/25 13:03:55;;;;;;;8.60;4.90;;;;;;;10.96;40.48;99549.02;104813;1271;61090;-27
2022/03/25 13:06:27;;;;;;;11.10;6.90;;;;;;;11.06;39.83;99551.05;104840;1273;61203;-27
2022/03/25 13:09:01;;;;;;;12.70;7.30;;;;;;;10.88;40.17;99549.27;104807;1271;74277;-27
2022/03/25 13:11:33;;;;;;;11.00;6.60;;;;;;;10.58;40.20;99545.26;104706;1272;73557;-27
2022/03/25 13:14:13;;;;;;;13.60;7.60;;;;;;;10.55;40.89;99547.88;104765;1271;71646;-27
2022/03/25 13:16:50;;;;;;;10.20;6.80;;;;;;;10.45;40.40;99548.27;104734;1271;61039;-27
2022/03/25 13:19:41;;;;;;;7.70;6.00;;;;;;;10.64;40.45;99545.30;104648;1274;61077;-27
2022/03/25 13:22:16;;;;;;;11.10;7.10;;;;;;;10.82;40.77;99539.11;104830;1271;73146;-27
2022/03/25 13:24:56;;;;;;;10.70;6.40;;;;;;;10.91;39.64;99542.98;104814;1271;73212;-27
2022/03/25 13:27:26;;;;;;;16.80;10.50;;;;;;;10.86;39.93;99537.28;104764;1271;74167;-26
2022/03/25 13:29:56;;;;;;;19.50;12.80;;;;;;;10.57;40.13;99539.19;104929;1271;61116;-27
2022/03/25 13:32:34;;;;;;;14.10;9.10;;;;;;;10.74;40.89;99537.83;104994;1271;61082;-26
2022/03/25 13:35:13;;;;;;;11.60;6.50;;;;;;;10.62;40.89;99536.92;104723;1271;74303;-27
2022/03/25 13:37:43;;;;;;;10.70;7.70;;;;;;;10.47;41.97;99534.39;104983;1271;75795;-28
2022/03/25 13:40:28;;;;;;;11.90;6.80;;;;;;;10.51;41.01;99534.28;105134;1271;73736;-31
2022/03/25 13:42:59;;;;;;;9.40;6.00;;;;;;;10.71;40.45;99534.05;104762;1271;61140;-27
2022/03/25 13:45:29;;;;;;;11.30;7.00;;;;;;;10.91;40.42;99535.17;104778;1272;61098;-30
2022/03/25 13:48:03;;;;;;;10.60;7.20;;;;;;;10.82;39.85;99534.09;104749;1274;75910;-30
2022/03/25 13:50:53;;;;;;;11.50;7.60;;;;;;;10.43;40.24;99529.95;104829;1271;76007;-28
2022/03/25 13:53:38;;;;;;;11.50;7.20;;;;;;;10.23;40.96;99522.89;104892;1271;74230;-28
2022/03/25 13:56:19;;;;;;;14.60;7.70;;;;;;;10.09;41.60;99529.64;104698;1271;61137;-27
2022/03/25 13:58:55;;;;;;;23.10;8.90;;;;;;;10.17;41.36;99529.59;104805;1271;61167;-27
2022/03/25 14:01:36;;;;;;;11.20;6.90;;;;;;;10.36;40.71;99528.40;105113;1271;75334;-30
2022/03/25 14:04:16;;;;;;;10.90;7.20;;;;;;;10.63;40.46;99524.56;105096;1271;75951;-28
2022/03/25 14:06:48;;;;;;;13.80;7.60;;;;;;;10.72;40.35;99520.74;104703;1274;73411;-30
2022/03/25 14:09:55;;;;;;;12.40;7.80;;;;;;;10.44;40.02;99524.33;104795;1271;61093;-28
2022/03/25 14:12:26;;;;;;;12.40;7.20;;;;;;;10.48;40.12;99524.42;104666;1274;61141;-29
2022/03/25 14:15:17;;;;;;;10.20;7.60;;;;;;;10.21;39.83;99521.98;104774;1271;76384;-29
2022/03/25 14:17:48;;;;;;;12.20;6.60;;;;;;;10.26;39.51;99520.09;104911;1271;74967;-28
2022/03/25 14:20:38;;;;;;;12.50;7.50;;;;;;;10.23;39.68;99521.88;104699;1271;74459;-28
2022/03/25 14:23:09;;;;;;;10.80;6.40;;;;;;;10.15;39.66;99519.16;104786;1274;61124;-28
2022/03/25 14:25:38;;;;;;;10.60;5.60;;;;;;;10.21;39.31;99521.81;104866;1271;61026;-27
2022/03/25 14:28:10;;;;;;;13.20;6.80;;;;;;;10.24;39.33;99514.16;104997;1271;74367;-27
2022/03/25 14:30:40;;;;;;;12.80;7.30;;;;;;;10.08;39.67;99512.34;104921;1271;75030;-27
2022/03/25 14:33:10;;;;;;;11.90;7.20;;;;;;;9.93;40.10;99512.54;105026;1272;74497;-27
2022/03/25 14:35:40;;;;;;;14.00;7.50;;;;;;;9.91;40.25;99511.98;105161;1271;61086;-28
2022/03/25 14:38:10;;;;;;;9.80;6.60;;;;;;;9.98;40.47;99513.09;105237;1271;61112;-28
2022/03/25 14:40:41;;;;;;;11.00;7.20;;;;;;;9.95;40.97;99516.57;104969;1271;75229;-28
2022/03/25 14:43:11;;;;;;;14.70;7.10;;;;;;;9.83;40.84;99512.55;105046;1271;74459;-28
2022/03/25 14:45:40;;;;;;;11.00;6.00;;;;;;;9.89;39.51;99512.42;104921;1271;74297;-28